sensor_id;sensor_type;location;lat;lon;timestamp;temperature;humidity
17639;DHT22;8938;53.546;9.954;2024-01-10T00:01:31;1.60;99.90
17639;DHT22;8938;53.546;9.954;2024-01-10T00:03:56;1.60;99.90
17639;DHT22;8938;53.546;9.954;2024-01-10T00:06:22;1.60;99.90
17639;DHT22;8938;53.546;9.954;2024-01-10T00:08:49;1.60;99.90
17639;DHT22;8938;53.546;9.954;2024-01-10T00:11:14;1.60;99.90
17639;DHT22;8938;53.546;9.954;2024-01-10T00:13:40;1.60;99.90
17639;DHT22;8938;53.546;9.954;2024-01-10T00:16:06;1.60;99.90
17639;DHT22;8938;53.546;9.954;2024-01-10T00:18:31;1.60;99.90
17639;DHT22;8938;53.546;9.954;2024-01-10T00:20:57;1.60;99.90
17639;DHT22;8938;53.546;9.954;2024-01-10T00:23:23;1.60;99.90
17639;DHT22;8938;53.546;9.954;2024-01-10T00:25:48;1.60;99.90
17639;DHT22;8938;53.546;9.954;2024-01-10T00:28:15;1.50;99.90
17639;DHT22;8938;53.546;9.954;2024-01-10T00:30:44;1.50;99.90
17639;DHT22;8938;53.546;9.954;2024-01-10T00:33:10;1.50;99.90
17639;DHT22;8938;53.546;9.954;2024-01-10T00:35:36;1.50;99.90
17639;DHT22;8938;53.546;9.954;2024-01-10T00:38:05;1.50;99.90
17639;DHT22;8938;53.546;9.954;2024-01-10T00:40:31;1.60;99.90
17639;DHT22;8938;53.546;9.954;2024-01-10T00:42:56;1.60;99.90
17639;DHT22;8938;53.546;9.954;2024-01-10T00:45:22;1.70;99.90
17639;DHT22;8938;53.546;9.954;2024-01-10T00:47:51;1.70;99.90
17639;DHT22;8938;53.546;9.954;2024-01-10T00:50:17;1.70;99.90
17639;DHT22;8938;53.546;9.954;2024-01-10T00:52:46;1.70;99.90
17639;DHT22;8938;53.546;9.954;2024-01-10T00:55:12;1.70;99.90
17639;DHT22;8938;53.546;9.954;2024-01-10T00:57:38;1.70;99.90
17639;DHT22;8938;53.546;9.954;2024-01-10T01:00:08;1.90;99.90
17639;DHT22;8938;53.546;9.954;2024-01-10T01:02:35;1.80;99.90
17639;DHT22;8938;53.546;9.954;2024-01-10T01:05:00;1.80;99.90
17639;DHT22;8938;53.546;9.954;2024-01-10T01:07:26;1.70;99.90
17639;DHT22;8938;53.546;9.954;2024-01-10T01:09:52;1.70;99.90
17639;DHT22;8938;53.546;9.954;2024-01-10T01:12:17;1.70;99.90
17639;DHT22;8938;53.546;9.954;2024-01-10T01:14:43;1.70;99.90
17639;DHT22;8938;53.546;9.954;2024-01-10T01:17:09;1.70;99.90
17639;DHT22;8938;53.546;9.954;2024-01-10T01:19:34;1.70;99.90
17639;DHT22;8938;53.546;9.954;2024-01-10T01:22:00;1.70;99.90
17639;DHT22;8938;53.546;9.954;2024-01-10T01:24:26;1.60;99.90
17639;DHT22;8938;53.546;9.954;2024-01-10T01:26:51;1.50;99.90
17639;DHT22;8938;53.546;9.954;2024-01-10T01:29:17;1.50;99.90
17639;DHT22;8938;53.546;9.954;2024-01-10T01:31:43;1.40;99.90
17639;DHT22;8938;53.546;9.954;2024-01-10T01:34:09;1.30;99.90
17639;DHT22;8938;53.546;9.954;2024-01-10T01:36:34;1.30;99.90
17639;DHT22;8938;53.546;9.954;2024-01-10T01:39:00;1.20;99.90
17639;DHT22;8938;53.546;9.954;2024-01-10T01:41:25;1.20;99.90
17639;DHT22;8938;53.546;9.954;2024-01-10T01:43:52;1.10;99.90
17639;DHT22;8938;53.546;9.954;2024-01-10T01:46:17;1.00;99.90
17639;DHT22;8938;53.546;9.954;2024-01-10T01:48:43;0.90;99.90
17639;DHT22;8938;53.546;9.954;2024-01-10T01:51:10;0.70;99.90
17639;DHT22;8938;53.546;9.954;2024-01-10T01:53:36;0.60;99.90
17639;DHT22;8938;53.546;9.954;2024-01-10T01:56:07;0.50;99.90
17639;DHT22;8938;53.546;9.954;2024-01-10T01:58:33;0.40;99.90
17639;DHT22;8938;53.546;9.954;2024-01-10T02:01:01;0.20;99.90
17639;DHT22;8938;53.546;9.954;2024-01-10T02:03:27;0.10;99.90
17639;DHT22;8938;53.546;9.954;2024-01-10T02:05:53;0.00;99.90
17639;DHT22;8938;53.546;9.954;2024-01-10T02:08:20;-0.10;99.90
17639;DHT22;8938;53.546;9.954;2024-01-10T02:10:45;-0.10;99.90
17639;DHT22;8938;53.546;9.954;2024-01-10T02:13:11;-0.20;99.90
17639;DHT22;8938;53.546;9.954;2024-01-10T02:15:38;-0.20;99.90
17639;DHT22;8938;53.546;9.954;2024-01-10T02:18:04;-0.20;99.90
17639;DHT22;8938;53.546;9.954;2024-01-10T02:20:31;-0.20;99.90
17639;DHT22;8938;53.546;9.954;2024-01-10T02:22:57;-0.10;99.90
17639;DHT22;8938;53.546;9.954;2024-01-10T02:25:23;-0.10;99.90
17639;DHT22;8938;53.546;9.954;2024-01-10T02:27:49;-0.20;99.90
17639;DHT22;8938;53.546;9.954;2024-01-10T02:30:14;-0.20;99.90
17639;DHT22;8938;53.546;9.954;2024-01-10T02:32:40;-0.20;99.90
17639;DHT22;8938;53.546;9.954;2024-01-10T02:35:06;-0.20;99.90
17639;DHT22;8938;53.546;9.954;2024-01-10T02:37:32;-0.20;99.90
17639;DHT22;8938;53.546;9.954;2024-01-10T02:39:57;-0.20;99.90
17639;DHT22;8938;53.546;9.954;2024-01-10T02:42:23;-0.20;99.90
17639;DHT22;8938;53.546;9.954;2024-01-10T02:44:49;-0.10;99.90
17639;DHT22;8938;53.546;9.954;2024-01-10T02:47:14;-0.10;99.90
17639;DHT22;8938;53.546;9.954;2024-01-10T02:49:40;0.00;99.90
17639;DHT22;8938;53.546;9.954;2024-01-10T02:52:06;0.20;99.90
17639;DHT22;8938;53.546;9.954;2024-01-10T02:54:31;-0.10;99.90
17639;DHT22;8938;53.546;9.954;2024-01-10T02:56:57;-0.10;99.90
17639;DHT22;8938;53.546;9.954;2024-01-10T02:59:22;-0.10;99.90
17639;DHT22;8938;53.546;9.954;2024-01-10T03:01:48;0.00;99.90
17639;DHT22;8938;53.546;9.954;2024-01-10T03:04:14;0.00;99.90
17639;DHT22;8938;53.546;9.954;2024-01-10T03:06:39;0.00;99.90
17639;DHT22;8938;53.546;9.954;2024-01-10T03:09:05;0.00;99.90
17639;DHT22;8938;53.546;9.954;2024-01-10T03:11:30;0.00;99.90
17639;DHT22;8938;53.546;9.954;2024-01-10T03:14:07;0.00;99.90
17639;DHT22;8938;53.546;9.954;2024-01-10T03:16:33;0.00;99.90
17639;DHT22;8938;53.546;9.954;2024-01-10T03:18:58;0.00;99.90
17639;DHT22;8938;53.546;9.954;2024-01-10T03:21:24;0.00;99.90
17639;DHT22;8938;53.546;9.954;2024-01-10T03:23:57;0.00;99.90
17639;DHT22;8938;53.546;9.954;2024-01-10T03:26:24;0.00;99.90
17639;DHT22;8938;53.546;9.954;2024-01-10T03:28:49;0.10;99.90
17639;DHT22;8938;53.546;9.954;2024-01-10T03:31:15;0.10;99.90
17639;DHT22;8938;53.546;9.954;2024-01-10T03:33:41;0.20;99.90
17639;DHT22;8938;53.546;9.954;2024-01-10T03:36:11;0.20;99.90
17639;DHT22;8938;53.546;9.954;2024-01-10T03:38:36;0.20;99.90
17639;DHT22;8938;53.546;9.954;2024-01-10T03:41:02;0.20;99.90
17639;DHT22;8938;53.546;9.954;2024-01-10T03:43:27;0.20;99.90
17639;DHT22;8938;53.546;9.954;2024-01-10T03:45:53;0.20;99.90
17639;DHT22;8938;53.546;9.954;2024-01-10T03:48:19;0.20;99.90
17639;DHT22;8938;53.546;9.954;2024-01-10T03:50:44;0.10;99.90
17639;DHT22;8938;53.546;9.954;2024-01-10T03:53:10;0.10;99.90
17639;DHT22;8938;53.546;9.954;2024-01-10T03:55:35;0.10;99.90
17639;DHT22;8938;53.546;9.954;2024-01-10T03:58:01;0.10;99.90
17639;DHT22;8938;53.546;9.954;2024-01-10T04:00:27;0.00;99.90
17639;DHT22;8938;53.546;9.954;2024-01-10T04:02:53;0.00;99.90
17639;DHT22;8938;53.546;9.954;2024-01-10T04:05:18;0.00;99.90
17639;DHT22;8938;53.546;9.954;2024-01-10T04:07:46;0.00;99.90
17639;DHT22;8938;53.546;9.954;2024-01-10T04:10:12;0.00;99.90
17639;DHT22;8938;53.546;9.954;2024-01-10T04:12:45;0.00;99.90
17639;DHT22;8938;53.546;9.954;2024-01-10T04:15:12;0.10;99.90
17639;DHT22;8938;53.546;9.954;2024-01-10T04:17:37;0.20;99.90
17639;DHT22;8938;53.546;9.954;2024-01-10T04:20:04;0.20;99.90
17639;DHT22;8938;53.546;9.954;2024-01-10T04:22:30;0.30;99.90
17639;DHT22;8938;53.546;9.954;2024-01-10T04:25:00;0.40;99.90
17639;DHT22;8938;53.546;9.954;2024-01-10T04:27:26;0.40;99.90
17639;DHT22;8938;53.546;9.954;2024-01-10T04:29:53;0.30;99.90
17639;DHT22;8938;53.546;9.954;2024-01-10T04:32:19;0.40;99.90
17639;DHT22;8938;53.546;9.954;2024-01-10T04:34:44;0.40;99.90
17639;DHT22;8938;53.546;9.954;2024-01-10T04:37:10;0.50;99.90
17639;DHT22;8938;53.546;9.954;2024-01-10T04:39:35;0.60;99.90
17639;DHT22;8938;53.546;9.954;2024-01-10T04:42:03;0.60;99.90
17639;DHT22;8938;53.546;9.954;2024-01-10T04:44:29;0.60;99.90
17639;DHT22;8938;53.546;9.954;2024-01-10T04:46:55;0.70;99.90
17639;DHT22;8938;53.546;9.954;2024-01-10T04:49:20;0.70;99.90
17639;DHT22;8938;53.546;9.954;2024-01-10T04:51:46;0.70;99.90
17639;DHT22;8938;53.546;9.954;2024-01-10T04:54:12;0.80;99.90
17639;DHT22;8938;53.546;9.954;2024-01-10T04:56:37;0.90;99.90
17639;DHT22;8938;53.546;9.954;2024-01-10T04:59:04;0.80;99.90
17639;DHT22;8938;53.546;9.954;2024-01-10T05:01:30;0.90;99.90
17639;DHT22;8938;53.546;9.954;2024-01-10T05:03:56;1.00;99.90
17639;DHT22;8938;53.546;9.954;2024-01-10T05:06:22;1.00;99.90
17639;DHT22;8938;53.546;9.954;2024-01-10T05:08:48;1.00;99.90
17639;DHT22;8938;53.546;9.954;2024-01-10T05:11:15;1.00;99.90
17639;DHT22;8938;53.546;9.954;2024-01-10T05:13:41;1.00;99.90
17639;DHT22;8938;53.546;9.954;2024-01-10T05:16:06;1.00;99.90
17639;DHT22;8938;53.546;9.954;2024-01-10T05:18:32;1.00;99.90
17639;DHT22;8938;53.546;9.954;2024-01-10T05:20:58;1.00;99.90
17639;DHT22;8938;53.546;9.954;2024-01-10T05:23:24;1.00;99.90
17639;DHT22;8938;53.546;9.954;2024-01-10T05:25:50;1.00;99.90
17639;DHT22;8938;53.546;9.954;2024-01-10T05:28:16;1.00;99.90
17639;DHT22;8938;53.546;9.954;2024-01-10T05:30:41;1.00;99.90
17639;DHT22;8938;53.546;9.954;2024-01-10T05:33:10;1.00;99.90
17639;DHT22;8938;53.546;9.954;2024-01-10T05:35:37;1.00;99.90
17639;DHT22;8938;53.546;9.954;2024-01-10T05:38:05;1.00;99.90
17639;DHT22;8938;53.546;9.954;2024-01-10T05:40:31;0.90;99.90
17639;DHT22;8938;53.546;9.954;2024-01-10T05:42:57;1.00;99.90
17639;DHT22;8938;53.546;9.954;2024-01-10T05:45:23;1.00;99.90
17639;DHT22;8938;53.546;9.954;2024-01-10T05:47:48;0.80;99.90
17639;DHT22;8938;53.546;9.954;2024-01-10T05:50:14;0.90;99.90
17639;DHT22;8938;53.546;9.954;2024-01-10T05:52:40;0.90;99.90
17639;DHT22;8938;53.546;9.954;2024-01-10T05:55:06;0.90;99.90
17639;DHT22;8938;53.546;9.954;2024-01-10T05:57:34;1.00;99.90
17639;DHT22;8938;53.546;9.954;2024-01-10T06:00:00;1.00;99.90
17639;DHT22;8938;53.546;9.954;2024-01-10T06:02:27;1.00;99.90
17639;DHT22;8938;53.546;9.954;2024-01-10T06:04:52;1.10;99.90
17639;DHT22;8938;53.546;9.954;2024-01-10T06:07:18;1.10;99.90
17639;DHT22;8938;53.546;9.954;2024-01-10T06:09:44;1.10;99.90
17639;DHT22;8938;53.546;9.954;2024-01-10T06:12:10;1.10;99.90
17639;DHT22;8938;53.546;9.954;2024-01-10T06:14:36;1.00;99.90
17639;DHT22;8938;53.546;9.954;2024-01-10T06:17:02;1.00;99.90
17639;DHT22;8938;53.546;9.954;2024-01-10T06:19:29;0.90;99.90
17639;DHT22;8938;53.546;9.954;2024-01-10T06:21:56;0.90;99.90
17639;DHT22;8938;53.546;9.954;2024-01-10T06:24:22;1.20;99.90
17639;DHT22;8938;53.546;9.954;2024-01-10T06:26:47;1.00;99.90
17639;DHT22;8938;53.546;9.954;2024-01-10T06:29:15;1.00;99.90
17639;DHT22;8938;53.546;9.954;2024-01-10T06:31:40;1.00;99.90
17639;DHT22;8938;53.546;9.954;2024-01-10T06:34:06;0.90;99.90
17639;DHT22;8938;53.546;9.954;2024-01-10T06:36:32;0.90;99.90
17639;DHT22;8938;53.546;9.954;2024-01-10T06:38:57;1.00;99.90
17639;DHT22;8938;53.546;9.954;2024-01-10T06:41:23;1.00;99.90
17639;DHT22;8938;53.546;9.954;2024-01-10T06:43:53;1.10;99.90
17639;DHT22;8938;53.546;9.954;2024-01-10T06:46:19;1.10;99.90
17639;DHT22;8938;53.546;9.954;2024-01-10T06:48:45;1.10;99.90
17639;DHT22;8938;53.546;9.954;2024-01-10T06:51:14;1.10;99.90
17639;DHT22;8938;53.546;9.954;2024-01-10T06:53:40;1.10;99.90
17639;DHT22;8938;53.546;9.954;2024-01-10T06:56:07;1.10;99.90
17639;DHT22;8938;53.546;9.954;2024-01-10T06:58:33;1.10;99.90
17639;DHT22;8938;53.546;9.954;2024-01-10T07:00:59;1.10;99.90
17639;DHT22;8938;53.546;9.954;2024-01-10T07:03:26;1.10;99.90
17639;DHT22;8938;53.546;9.954;2024-01-10T07:05:52;1.10;99.90
17639;DHT22;8938;53.546;9.954;2024-01-10T07:08:17;1.20;99.90
17639;DHT22;8938;53.546;9.954;2024-01-10T07:10:43;1.20;99.90
17639;DHT22;8938;53.546;9.954;2024-01-10T07:13:08;1.30;99.90
17639;DHT22;8938;53.546;9.954;2024-01-10T07:15:34;1.30;99.90
17639;DHT22;8938;53.546;9.954;2024-01-10T07:18:01;1.40;99.90
17639;DHT22;8938;53.546;9.954;2024-01-10T07:20:27;1.40;99.90
17639;DHT22;8938;53.546;9.954;2024-01-10T07:22:53;1.40;99.90
17639;DHT22;8938;53.546;9.954;2024-01-10T07:25:18;1.40;99.90
17639;DHT22;8938;53.546;9.954;2024-01-10T07:27:44;1.40;99.90
17639;DHT22;8938;53.546;9.954;2024-01-10T07:30:10;1.50;99.90
17639;DHT22;8938;53.546;9.954;2024-01-10T07:32:52;1.50;99.90
17639;DHT22;8938;53.546;9.954;2024-01-10T07:35:17;1.50;99.90
17639;DHT22;8938;53.546;9.954;2024-01-10T07:37:43;1.50;99.90
17639;DHT22;8938;53.546;9.954;2024-01-10T07:40:09;1.40;99.90
17639;DHT22;8938;53.546;9.954;2024-01-10T07:42:36;1.50;99.90
17639;DHT22;8938;53.546;9.954;2024-01-10T07:45:03;1.50;99.90
17639;DHT22;8938;53.546;9.954;2024-01-10T07:47:30;1.50;99.90
17639;DHT22;8938;53.546;9.954;2024-01-10T07:49:57;1.40;99.90
17639;DHT22;8938;53.546;9.954;2024-01-10T07:52:22;1.50;99.90
17639;DHT22;8938;53.546;9.954;2024-01-10T07:54:48;1.50;99.90
17639;DHT22;8938;53.546;9.954;2024-01-10T07:57:13;1.60;99.90
17639;DHT22;8938;53.546;9.954;2024-01-10T07:59:39;1.50;99.90
17639;DHT22;8938;53.546;9.954;2024-01-10T08:02:05;1.50;99.90
17639;DHT22;8938;53.546;9.954;2024-01-10T08:04:31;1.40;99.90
17639;DHT22;8938;53.546;9.954;2024-01-10T08:06:56;1.30;99.90
17639;DHT22;8938;53.546;9.954;2024-01-10T08:09:22;1.30;99.90
17639;DHT22;8938;53.546;9.954;2024-01-10T08:11:51;1.30;99.90
17639;DHT22;8938;53.546;9.954;2024-01-10T08:14:16;1.40;99.90
17639;DHT22;8938;53.546;9.954;2024-01-10T08:16:42;1.50;99.90
17639;DHT22;8938;53.546;9.954;2024-01-10T08:19:08;1.40;99.90
17639;DHT22;8938;53.546;9.954;2024-01-10T08:21:33;1.40;99.90
17639;DHT22;8938;53.546;9.954;2024-01-10T08:24:01;1.50;99.90
17639;DHT22;8938;53.546;9.954;2024-01-10T08:26:27;1.50;99.90
17639;DHT22;8938;53.546;9.954;2024-01-10T08:28:53;1.50;99.90
17639;DHT22;8938;53.546;9.954;2024-01-10T08:31:19;1.60;99.90
17639;DHT22;8938;53.546;9.954;2024-01-10T08:33:44;1.70;99.90
17639;DHT22;8938;53.546;9.954;2024-01-10T08:36:13;1.70;99.90
17639;DHT22;8938;53.546;9.954;2024-01-10T08:38:40;1.70;99.90
17639;DHT22;8938;53.546;9.954;2024-01-10T08:41:07;1.60;99.90
17639;DHT22;8938;53.546;9.954;2024-01-10T08:43:32;1.60;99.90
17639;DHT22;8938;53.546;9.954;2024-01-10T08:45:58;1.50;99.90
17639;DHT22;8938;53.546;9.954;2024-01-10T08:48:24;1.50;99.90
17639;DHT22;8938;53.546;9.954;2024-01-10T08:50:50;1.40;99.90
17639;DHT22;8938;53.546;9.954;2024-01-10T08:53:16;1.30;99.90
17639;DHT22;8938;53.546;9.954;2024-01-10T08:55:42;1.30;99.90
17639;DHT22;8938;53.546;9.954;2024-01-10T08:58:07;1.40;99.90
17639;DHT22;8938;53.546;9.954;2024-01-10T09:00:33;1.40;99.90
17639;DHT22;8938;53.546;9.954;2024-01-10T09:03:00;1.40;99.90
17639;DHT22;8938;53.546;9.954;2024-01-10T09:05:25;1.50;99.90
17639;DHT22;8938;53.546;9.954;2024-01-10T09:07:51;1.50;99.90
17639;DHT22;8938;53.546;9.954;2024-01-10T09:10:19;1.60;99.90
17639;DHT22;8938;53.546;9.954;2024-01-10T09:12:46;1.60;99.90
17639;DHT22;8938;53.546;9.954;2024-01-10T09:15:12;1.70;99.90
17639;DHT22;8938;53.546;9.954;2024-01-10T09:17:41;1.70;99.90
17639;DHT22;8938;53.546;9.954;2024-01-10T09:20:06;1.70;99.90
17639;DHT22;8938;53.546;9.954;2024-01-10T09:22:33;1.80;99.90
17639;DHT22;8938;53.546;9.954;2024-01-10T09:24:59;1.90;99.90
17639;DHT22;8938;53.546;9.954;2024-01-10T09:27:29;1.90;99.90
17639;DHT22;8938;53.546;9.954;2024-01-10T09:29:55;1.90;99.90
17639;DHT22;8938;53.546;9.954;2024-01-10T09:32:20;2.00;99.90
17639;DHT22;8938;53.546;9.954;2024-01-10T09:34:47;2.10;99.90
17639;DHT22;8938;53.546;9.954;2024-01-10T09:37:13;2.10;99.90
17639;DHT22;8938;53.546;9.954;2024-01-10T09:39:38;2.30;99.90
17639;DHT22;8938;53.546;9.954;2024-01-10T09:42:04;2.30;99.90
17639;DHT22;8938;53.546;9.954;2024-01-10T09:44:29;2.30;99.90
17639;DHT22;8938;53.546;9.954;2024-01-10T09:46:56;2.20;99.90
17639;DHT22;8938;53.546;9.954;2024-01-10T09:49:21;2.10;99.90
17639;DHT22;8938;53.546;9.954;2024-01-10T09:51:49;2.00;99.90
17639;DHT22;8938;53.546;9.954;2024-01-10T09:54:15;1.90;99.90
17639;DHT22;8938;53.546;9.954;2024-01-10T09:56:41;1.80;99.90
17639;DHT22;8938;53.546;9.954;2024-01-10T09:59:07;1.80;99.90
17639;DHT22;8938;53.546;9.954;2024-01-10T10:01:37;2.00;99.90
17639;DHT22;8938;53.546;9.954;2024-01-10T10:04:05;2.10;99.90
17639;DHT22;8938;53.546;9.954;2024-01-10T10:06:33;2.30;99.90
17639;DHT22;8938;53.546;9.954;2024-01-10T10:08:59;2.40;99.90
17639;DHT22;8938;53.546;9.954;2024-01-10T10:11:25;2.40;99.90
17639;DHT22;8938;53.546;9.954;2024-01-10T10:13:51;2.40;99.90
17639;DHT22;8938;53.546;9.954;2024-01-10T10:16:23;2.10;99.90
17639;DHT22;8938;53.546;9.954;2024-01-10T10:18:50;1.90;99.90
17639;DHT22;8938;53.546;9.954;2024-01-10T10:21:16;1.90;99.90
17639;DHT22;8938;53.546;9.954;2024-01-10T10:23:43;2.00;99.90
17639;DHT22;8938;53.546;9.954;2024-01-10T10:26:22;2.00;99.90
17639;DHT22;8938;53.546;9.954;2024-01-10T10:28:50;2.10;99.90
17639;DHT22;8938;53.546;9.954;2024-01-10T10:31:17;2.10;99.90
17639;DHT22;8938;53.546;9.954;2024-01-10T10:33:44;2.10;99.90
17639;DHT22;8938;53.546;9.954;2024-01-10T10:36:09;2.10;99.90
17639;DHT22;8938;53.546;9.954;2024-01-10T10:38:36;2.00;99.90
17639;DHT22;8938;53.546;9.954;2024-01-10T10:41:05;1.90;99.90
17639;DHT22;8938;53.546;9.954;2024-01-10T10:43:38;1.90;99.90
17639;DHT22;8938;53.546;9.954;2024-01-10T10:46:05;1.90;99.90
17639;DHT22;8938;53.546;9.954;2024-01-10T10:48:35;2.00;99.90
17639;DHT22;8938;53.546;9.954;2024-01-10T10:51:08;2.10;99.90
17639;DHT22;8938;53.546;9.954;2024-01-10T10:53:36;2.20;99.90
17639;DHT22;8938;53.546;9.954;2024-01-10T10:56:03;2.30;99.90
17639;DHT22;8938;53.546;9.954;2024-01-10T10:58:43;2.20;99.90
17639;DHT22;8938;53.546;9.954;2024-01-10T11:01:13;2.20;99.90
17639;DHT22;8938;53.546;9.954;2024-01-10T11:03:40;2.10;99.90
17639;DHT22;8938;53.546;9.954;2024-01-10T11:06:07;2.10;99.90
17639;DHT22;8938;53.546;9.954;2024-01-10T11:08:46;2.10;99.90
17639;DHT22;8938;53.546;9.954;2024-01-10T11:16:50;1.90;99.90
17639;DHT22;8938;53.546;9.954;2024-01-10T11:19:53;1.90;99.90
17639;DHT22;8938;53.546;9.954;2024-01-10T11:25:35;1.90;99.90
17639;DHT22;8938;53.546;9.954;2024-01-10T11:28:03;1.80;99.90
17639;DHT22;8938;53.546;9.954;2024-01-10T11:30:36;1.70;99.90
17639;DHT22;8938;53.546;9.954;2024-01-10T11:33:33;1.70;99.90
17639;DHT22;8938;53.546;9.954;2024-01-10T11:36:17;1.70;99.90
17639;DHT22;8938;53.546;9.954;2024-01-10T11:41:19;1.70;99.90
17639;DHT22;8938;53.546;9.954;2024-01-10T11:43:45;1.80;99.90
17639;DHT22;8938;53.546;9.954;2024-01-10T11:46:12;1.90;99.90
17639;DHT22;8938;53.546;9.954;2024-01-10T11:48:38;1.90;99.90
17639;DHT22;8938;53.546;9.954;2024-01-10T11:51:04;1.90;99.90
17639;DHT22;8938;53.546;9.954;2024-01-10T11:53:43;2.00;99.90
17639;DHT22;8938;53.546;9.954;2024-01-10T11:56:13;2.00;99.90
17639;DHT22;8938;53.546;9.954;2024-01-10T11:58:54;2.00;99.90
17639;DHT22;8938;53.546;9.954;2024-01-10T12:01:21;2.00;99.90
17639;DHT22;8938;53.546;9.954;2024-01-10T12:03:47;2.00;99.90
17639;DHT22;8938;53.546;9.954;2024-01-10T12:06:14;2.00;99.90
17639;DHT22;8938;53.546;9.954;2024-01-10T12:08:41;2.00;99.90
17639;DHT22;8938;53.546;9.954;2024-01-10T12:11:06;2.00;99.90
17639;DHT22;8938;53.546;9.954;2024-01-10T12:13:32;1.90;99.90
17639;DHT22;8938;53.546;9.954;2024-01-10T12:15:58;2.00;99.90
17639;DHT22;8938;53.546;9.954;2024-01-10T12:18:23;2.00;99.90
17639;DHT22;8938;53.546;9.954;2024-01-10T12:20:49;2.00;99.90
17639;DHT22;8938;53.546;9.954;2024-01-10T12:23:15;2.10;99.90
17639;DHT22;8938;53.546;9.954;2024-01-10T12:25:40;2.20;99.90
17639;DHT22;8938;53.546;9.954;2024-01-10T12:28:06;2.40;99.90
17639;DHT22;8938;53.546;9.954;2024-01-10T12:30:31;2.50;99.90
17639;DHT22;8938;53.546;9.954;2024-01-10T12:33:00;2.50;99.90
17639;DHT22;8938;53.546;9.954;2024-01-10T12:35:26;2.50;99.90
17639;DHT22;8938;53.546;9.954;2024-01-10T12:37:55;2.50;99.90
17639;DHT22;8938;53.546;9.954;2024-01-10T12:40:23;2.50;99.90
17639;DHT22;8938;53.546;9.954;2024-01-10T12:42:49;2.60;99.90
17639;DHT22;8938;53.546;9.954;2024-01-10T12:45:24;2.70;99.90
17639;DHT22;8938;53.546;9.954;2024-01-10T12:50:16;2.60;99.90
17639;DHT22;8938;53.546;9.954;2024-01-10T12:52:42;2.60;99.90
17639;DHT22;8938;53.546;9.954;2024-01-10T12:55:09;2.60;99.90
17639;DHT22;8938;53.546;9.954;2024-01-10T12:57:35;2.80;99.90
17639;DHT22;8938;53.546;9.954;2024-01-10T13:00:00;2.80;99.90
17639;DHT22;8938;53.546;9.954;2024-01-10T13:02:32;2.80;99.90
17639;DHT22;8938;53.546;9.954;2024-01-10T13:05:00;2.90;99.90
17639;DHT22;8938;53.546;9.954;2024-01-10T13:07:26;2.90;99.90
17639;DHT22;8938;53.546;9.954;2024-01-10T13:09:52;2.90;99.90
17639;DHT22;8938;53.546;9.954;2024-01-10T13:12:19;3.10;99.90
17639;DHT22;8938;53.546;9.954;2024-01-10T13:14:45;3.30;99.90
17639;DHT22;8938;53.546;9.954;2024-01-10T13:17:11;3.30;99.90
17639;DHT22;8938;53.546;9.954;2024-01-10T13:19:36;3.30;99.90
17639;DHT22;8938;53.546;9.954;2024-01-10T13:24:29;3.10;99.90
17639;DHT22;8938;53.546;9.954;2024-01-10T13:26:55;3.10;99.90
17639;DHT22;8938;53.546;9.954;2024-01-10T13:29:21;3.10;99.90
17639;DHT22;8938;53.546;9.954;2024-01-10T13:31:46;2.90;99.90
17639;DHT22;8938;53.546;9.954;2024-01-10T13:34:14;2.80;99.90
17639;DHT22;8938;53.546;9.954;2024-01-10T13:36:40;2.70;99.90
17639;DHT22;8938;53.546;9.954;2024-01-10T13:39:06;2.60;99.90
17639;DHT22;8938;53.546;9.954;2024-01-10T13:41:32;2.50;99.90
17639;DHT22;8938;53.546;9.954;2024-01-10T13:43:58;2.50;99.90
17639;DHT22;8938;53.546;9.954;2024-01-10T13:46:23;2.50;99.90
17639;DHT22;8938;53.546;9.954;2024-01-10T13:48:49;2.50;99.90
17639;DHT22;8938;53.546;9.954;2024-01-10T13:51:15;2.40;99.90
17639;DHT22;8938;53.546;9.954;2024-01-10T13:53:40;2.40;99.90
17639;DHT22;8938;53.546;9.954;2024-01-10T13:56:06;2.40;99.90
17639;DHT22;8938;53.546;9.954;2024-01-10T13:58:32;2.50;99.90
17639;DHT22;8938;53.546;9.954;2024-01-10T14:00:58;2.60;99.90
17639;DHT22;8938;53.546;9.954;2024-01-10T14:03:23;2.70;99.90
17639;DHT22;8938;53.546;9.954;2024-01-10T14:05:49;2.70;99.90
17639;DHT22;8938;53.546;9.954;2024-01-10T14:08:15;2.70;99.90
17639;DHT22;8938;53.546;9.954;2024-01-10T14:10:41;2.60;99.90
17639;DHT22;8938;53.546;9.954;2024-01-10T14:13:07;2.60;99.90
17639;DHT22;8938;53.546;9.954;2024-01-10T14:15:33;2.60;99.90
17639;DHT22;8938;53.546;9.954;2024-01-10T14:17:59;2.60;99.90
17639;DHT22;8938;53.546;9.954;2024-01-10T14:20:24;2.60;99.90
17639;DHT22;8938;53.546;9.954;2024-01-10T14:22:50;2.60;99.90
17639;DHT22;8938;53.546;9.954;2024-01-10T14:25:15;2.50;99.90
17639;DHT22;8938;53.546;9.954;2024-01-10T14:27:41;2.40;99.90
17639;DHT22;8938;53.546;9.954;2024-01-10T14:30:07;2.40;99.90
17639;DHT22;8938;53.546;9.954;2024-01-10T14:32:36;2.30;99.90
17639;DHT22;8938;53.546;9.954;2024-01-10T14:35:03;2.20;99.90
17639;DHT22;8938;53.546;9.954;2024-01-10T14:37:30;2.20;99.90
17639;DHT22;8938;53.546;9.954;2024-01-10T14:39:56;2.10;99.90
17639;DHT22;8938;53.546;9.954;2024-01-10T14:42:21;2.10;99.90
17639;DHT22;8938;53.546;9.954;2024-01-10T14:44:47;2.10;99.90
17639;DHT22;8938;53.546;9.954;2024-01-10T14:47:12;2.10;99.90
17639;DHT22;8938;53.546;9.954;2024-01-10T14:49:38;2.20;99.90
17639;DHT22;8938;53.546;9.954;2024-01-10T14:52:04;2.20;99.90
17639;DHT22;8938;53.546;9.954;2024-01-10T14:54:29;2.10;99.90
17639;DHT22;8938;53.546;9.954;2024-01-10T14:56:56;2.10;99.90
17639;DHT22;8938;53.546;9.954;2024-01-10T14:59:21;2.10;99.90
17639;DHT22;8938;53.546;9.954;2024-01-10T15:01:47;2.20;99.90
17639;DHT22;8938;53.546;9.954;2024-01-10T15:04:13;2.20;99.90
17639;DHT22;8938;53.546;9.954;2024-01-10T15:06:45;2.20;99.90
17639;DHT22;8938;53.546;9.954;2024-01-10T15:09:14;2.20;99.90
17639;DHT22;8938;53.546;9.954;2024-01-10T15:11:41;2.10;99.90
17639;DHT22;8938;53.546;9.954;2024-01-10T15:14:08;2.10;99.90
17639;DHT22;8938;53.546;9.954;2024-01-10T15:16:34;2.10;99.90
17639;DHT22;8938;53.546;9.954;2024-01-10T15:19:00;2.10;99.90
17639;DHT22;8938;53.546;9.954;2024-01-10T15:21:27;2.00;99.90
17639;DHT22;8938;53.546;9.954;2024-01-10T15:23:53;2.00;99.90
17639;DHT22;8938;53.546;9.954;2024-01-10T15:26:18;2.00;99.90
17639;DHT22;8938;53.546;9.954;2024-01-10T15:28:45;1.90;99.90
17639;DHT22;8938;53.546;9.954;2024-01-10T15:31:20;1.90;99.90
17639;DHT22;8938;53.546;9.954;2024-01-10T15:33:46;1.80;99.90
17639;DHT22;8938;53.546;9.954;2024-01-10T15:36:13;1.80;99.90
17639;DHT22;8938;53.546;9.954;2024-01-10T15:38:39;1.80;99.90
17639;DHT22;8938;53.546;9.954;2024-01-10T15:41:11;1.80;99.90
17639;DHT22;8938;53.546;9.954;2024-01-10T15:43:37;1.90;99.90
17639;DHT22;8938;53.546;9.954;2024-01-10T15:46:04;1.90;99.90
17639;DHT22;8938;53.546;9.954;2024-01-10T15:48:30;1.90;99.90
17639;DHT22;8938;53.546;9.954;2024-01-10T15:50:56;1.80;99.90
17639;DHT22;8938;53.546;9.954;2024-01-10T15:53:23;1.80;99.90
17639;DHT22;8938;53.546;9.954;2024-01-10T15:55:48;1.80;99.90
17639;DHT22;8938;53.546;9.954;2024-01-10T15:58:17;1.80;99.90
17639;DHT22;8938;53.546;9.954;2024-01-10T16:00:43;1.80;99.90
17639;DHT22;8938;53.546;9.954;2024-01-10T16:03:08;1.70;99.90
17639;DHT22;8938;53.546;9.954;2024-01-10T16:05:34;1.80;99.90
17639;DHT22;8938;53.546;9.954;2024-01-10T16:07:59;1.80;99.90
17639;DHT22;8938;53.546;9.954;2024-01-10T16:10:25;1.80;99.90
17639;DHT22;8938;53.546;9.954;2024-01-10T16:12:52;1.90;99.90